createdAt,value
2022-12-03T00:01:40.107Z,77.53
2022-12-03T00:04:09.857Z,77.84
2022-12-03T00:06:39.667Z,78.49
2022-12-03T00:09:13.505Z,78.52
2022-12-03T00:11:43.605Z,79.85
2022-12-03T00:14:13.414Z,79.90
2022-12-03T00:16:43.124Z,80.49
2022-12-03T00:19:13.000Z,80.50
2022-12-03T00:21:42.717Z,81.37
2022-12-03T00:24:12.384Z,81.91
2022-12-03T00:26:42.112Z,82.50
2022-12-03T00:29:12.399Z,83.65
2022-12-03T00:31:43.293Z,83.86
2022-12-03T00:34:14.028Z,84.36
2022-12-03T00:36:43.958Z,84.99
2022-12-03T00:39:13.859Z,85.22
2022-12-03T00:41:43.986Z,85.80
2022-12-03T00:44:13.672Z,86.37
2022-12-03T00:46:43.432Z,87.22
2022-12-03T00:49:13.177Z,87.54
2022-12-03T00:51:43.028Z,87.90
2022-12-03T00:54:12.835Z,88.33
2022-12-03T00:56:42.843Z,88.96
2022-12-03T00:59:13.000Z,89.53
2022-12-03T01:01:43.191Z,89.63
2022-12-03T01:04:12.983Z,90.09
2022-12-03T01:06:42.832Z,90.60
2022-12-03T01:09:12.573Z,90.60
2022-12-03T01:11:42.912Z,90.79
2022-12-03T01:14:17.859Z,90.71
2022-12-03T01:16:49.226Z,91.05
2022-12-03T01:19:20.534Z,90.82
2022-12-03T01:21:52.629Z,90.79
2022-12-03T01:24:23.549Z,90.69
2022-12-03T01:26:53.811Z,91.13
2022-12-03T01:29:23.619Z,91.30
2022-12-03T01:32:11.711Z,90.74
2022-12-03T01:34:41.963Z,91.37
2022-12-03T01:37:11.806Z,91.18
2022-12-03T01:39:41.955Z,90.53
2022-12-03T01:42:36.052Z,90.44
2022-12-03T01:45:06.624Z,90.56
2022-12-03T01:47:38.151Z,91.02
2022-12-03T01:50:10.751Z,90.66
2022-12-03T01:52:41.821Z,91.31
2022-12-03T01:55:21.262Z,91.21
2022-12-03T01:58:00.875Z,91.45
2022-12-03T02:00:32.969Z,91.59
2022-12-03T02:03:08.879Z,91.84
2022-12-03T02:05:39.865Z,91.97
2022-12-03T02:08:32.635Z,92.02
2022-12-03T02:11:28.494Z,92.13
2022-12-03T02:14:03.578Z,92.46
2022-12-03T02:16:33.798Z,92.52
2022-12-03T02:19:04.484Z,92.79
2022-12-03T02:21:47.882Z,92.99
2022-12-03T02:24:23.817Z,93.21
2022-12-03T02:26:53.733Z,93.13
2022-12-03T02:29:23.859Z,93.24
2022-12-03T02:31:53.583Z,93.22
2022-12-03T02:34:44.950Z,93.08
2022-12-03T02:37:28.740Z,93.66
2022-12-03T02:40:02.565Z,94.14
2022-12-03T02:42:38.865Z,93.70
2022-12-03T02:45:13.859Z,93.51
2022-12-03T02:48:08.019Z,93.56
2022-12-03T02:50:41.297Z,93.68
2022-12-03T02:53:16.457Z,93.40
2022-12-03T02:55:47.638Z,93.66
2022-12-03T02:58:18.133Z,93.85
2022-12-03T03:00:48.346Z,93.69
2022-12-03T03:03:19.889Z,93.40
2022-12-03T03:05:51.086Z,93.71
2022-12-03T03:08:21.889Z,93.81
2022-12-03T03:10:52.107Z,93.44
2022-12-03T03:13:22.628Z,93.38
2022-12-03T03:15:52.553Z,93.47
2022-12-03T03:18:22.307Z,93.92
2022-12-03T03:20:52.420Z,94.60
2022-12-03T03:23:26.290Z,94.64
2022-12-03T03:26:11.321Z,93.57
2022-12-03T03:28:45.706Z,94.34
2022-12-03T03:31:19.968Z,93.83
2022-12-03T03:33:51.568Z,94.12
2022-12-03T03:36:22.139Z,94.60
2022-12-03T03:38:51.879Z,94.86
2022-12-03T03:41:23.160Z,95.17
2022-12-03T03:43:53.258Z,95.46
2022-12-03T03:46:24.359Z,95.73
2022-12-03T03:48:54.439Z,95.91
2022-12-03T03:51:24.222Z,96.39
2022-12-03T03:53:54.347Z,96.58
2022-12-03T03:56:24.410Z,96.49
2022-12-03T03:58:54.293Z,96.67
2022-12-03T04:01:25.482Z,96.29
2022-12-03T04:03:56.005Z,96.26
2022-12-03T04:06:25.780Z,96.60
2022-12-03T04:08:55.827Z,96.88
2022-12-03T04:11:43.419Z,97.14
2022-12-03T04:14:13.276Z,97.15
2022-12-03T04:16:43.345Z,97.28
2022-12-03T04:19:13.109Z,97.49
2022-12-03T04:22:01.046Z,97.62
2022-12-03T04:24:32.172Z,97.83
2022-12-03T04:27:20.603Z,97.90
2022-12-03T04:29:50.733Z,98.07
2022-12-03T04:32:38.646Z,98.09
2022-12-03T04:35:27.135Z,98.72
2022-12-03T04:37:57.172Z,98.77
2022-12-03T04:40:45.324Z,98.44
2022-12-03T04:43:15.292Z,98.30
2022-12-03T04:45:45.054Z,98.27
2022-12-03T04:48:14.852Z,98.29
2022-12-03T04:50:44.830Z,98.29
2022-12-03T04:53:14.935Z,98.41
2022-12-03T04:55:44.623Z,98.46
2022-12-03T04:58:14.307Z,98.56
2022-12-03T05:00:44.397Z,98.58
2022-12-03T05:03:14.032Z,98.63
2022-12-03T05:05:43.742Z,98.67
2022-12-03T05:08:13.523Z,98.62
2022-12-03T05:10:43.496Z,98.57
2022-12-03T05:13:13.180Z,98.69
2022-12-03T05:15:43.789Z,98.77
2022-12-03T05:18:13.587Z,99.08
2022-12-03T05:20:46.942Z,99.13
2022-12-03T05:23:21.549Z,99.00
2022-12-03T05:25:51.263Z,99.14
2022-12-03T05:28:23.272Z,99.17
2022-12-03T05:30:53.972Z,99.32
2022-12-03T05:33:23.979Z,99.54
2022-12-03T05:35:53.692Z,99.60
2022-12-03T05:38:23.794Z,99.54
2022-12-03T05:40:53.483Z,99.59
2022-12-03T05:43:23.307Z,99.64
2022-12-03T05:45:53.417Z,99.71
2022-12-03T05:48:23.134Z,99.71
2022-12-03T05:50:52.830Z,99.79
2022-12-03T05:53:22.509Z,99.81
2022-12-03T05:55:52.553Z,99.90
2022-12-03T05:58:22.264Z,99.94
2022-12-03T06:00:52.300Z,99.97
2022-12-03T06:03:22.588Z,99.99
2022-12-03T06:05:52.493Z,99.99
2022-12-03T06:08:22.230Z,99.99
2022-12-03T06:10:52.016Z,99.99
2022-12-03T06:13:21.728Z,99.99
2022-12-03T06:15:51.434Z,99.99
2022-12-03T06:18:21.700Z,99.99
2022-12-03T06:20:51.381Z,99.99
2022-12-03T06:23:21.061Z,99.99
2022-12-03T06:25:51.983Z,99.99
2022-12-03T06:28:22.047Z,99.99
2022-12-03T06:30:51.808Z,99.99
2022-12-03T06:33:21.743Z,99.99
2022-12-03T06:35:51.702Z,99.99
2022-12-03T06:38:21.377Z,99.99
2022-12-03T06:40:51.634Z,99.99
2022-12-03T06:43:21.324Z,99.99
2022-12-03T06:45:51.022Z,99.99
2022-12-03T06:48:21.201Z,99.99
2022-12-03T06:50:50.871Z,99.99
2022-12-03T06:53:20.569Z,99.99
2022-12-03T06:55:51.120Z,99.99
2022-12-03T06:58:21.647Z,99.99
2022-12-03T07:00:51.306Z,99.99
2022-12-03T07:03:21.064Z,99.99
2022-12-03T07:05:50.803Z,99.99
2022-12-03T07:08:20.480Z,99.99
2022-12-03T07:10:50.254Z,99.99
2022-12-03T07:13:19.966Z,99.99
2022-12-03T07:15:50.606Z,99.99
2022-12-03T07:18:20.334Z,99.99
2022-12-03T07:20:50.116Z,99.99
2022-12-03T07:23:19.794Z,99.99
2022-12-03T07:25:49.635Z,99.99
2022-12-03T07:28:19.318Z,99.99
2022-12-03T07:30:49.365Z,99.99
2022-12-03T07:33:19.028Z,99.99
2022-12-03T07:35:48.798Z,99.99
2022-12-03T07:38:18.459Z,99.99
2022-12-03T07:40:50.876Z,99.99
2022-12-03T07:43:21.288Z,99.99
2022-12-03T07:45:51.019Z,99.99
2022-12-03T07:48:21.621Z,99.99
2022-12-03T07:50:51.391Z,99.99
2022-12-03T07:53:21.137Z,99.99
2022-12-03T07:55:50.820Z,99.99
2022-12-03T07:58:20.541Z,99.99
2022-12-03T08:00:51.203Z,99.99
2022-12-03T08:03:21.263Z,99.99
2022-12-03T08:05:51.018Z,99.99
2022-12-03T08:08:21.535Z,99.99
2022-12-03T08:10:51.193Z,99.99
2022-12-03T08:13:21.292Z,99.99
2022-12-03T08:15:51.090Z,99.99
2022-12-03T08:18:22.483Z,99.99
2022-12-03T08:20:53.332Z,99.99
2022-12-03T08:23:25.753Z,99.99
2022-12-03T08:25:56.927Z,99.99
2022-12-03T08:28:29.245Z,99.99
2022-12-03T08:31:19.387Z,99.99
2022-12-03T08:33:52.706Z,99.99
2022-12-03T08:36:32.288Z,99.99
2022-12-03T08:39:06.835Z,99.99
2022-12-03T08:41:56.314Z,99.99
2022-12-03T08:44:30.392Z,99.99
2022-12-03T08:47:23.320Z,99.99
2022-12-03T08:49:59.534Z,99.99
2022-12-03T08:52:33.630Z,99.99
2022-12-03T08:55:30.567Z,99.99
2022-12-03T08:58:00.960Z,99.99
2022-12-03T09:00:30.640Z,99.99
2022-12-03T09:03:02.881Z,99.99
2022-12-03T09:05:34.528Z,99.99
2022-12-03T09:08:04.543Z,99.99
2022-12-03T09:10:34.278Z,99.99
2022-12-03T09:13:04.029Z,99.99
2022-12-03T09:15:34.976Z,99.99
2022-12-03T09:18:05.466Z,99.99
2022-12-03T09:20:35.436Z,99.99
2022-12-03T09:23:05.432Z,99.91
2022-12-03T09:25:35.141Z,99.64
2022-12-03T09:28:04.857Z,99.60
2022-12-03T09:30:34.546Z,99.61
2022-12-03T09:33:04.361Z,99.68
2022-12-03T09:35:35.451Z,99.61
2022-12-03T09:38:05.520Z,99.48
2022-12-03T09:40:36.035Z,99.14
2022-12-03T09:43:07.396Z,99.26
2022-12-03T09:45:37.408Z,99.06
2022-12-03T09:48:07.491Z,99.15
2022-12-03T09:50:41.041Z,99.27
2022-12-03T09:53:15.984Z,98.86
2022-12-03T09:55:47.889Z,98.56
2022-12-03T09:58:20.094Z,98.28
2022-12-03T10:00:53.740Z,98.53
2022-12-03T10:03:30.025Z,97.38
2022-12-03T10:06:00.206Z,96.99
2022-12-03T10:08:33.687Z,96.49
2022-12-03T10:11:04.710Z,96.75
2022-12-03T10:13:36.299Z,97.06
2022-12-03T10:16:06.949Z,97.06
2022-12-03T10:18:41.457Z,96.40
2022-12-03T10:21:19.330Z,96.33
2022-12-03T10:23:55.036Z,96.02
2022-12-03T10:26:41.767Z,95.48
2022-12-03T10:29:16.241Z,96.60
2022-12-03T10:31:46.548Z,96.12
2022-12-03T10:34:35.863Z,95.65
2022-12-03T10:37:21.598Z,95.44
2022-12-03T10:40:10.418Z,95.51
2022-12-03T10:42:42.340Z,95.08
2022-12-03T10:45:21.802Z,93.50
2022-12-03T10:48:26.552Z,93.91
2022-12-03T10:51:08.196Z,93.20
2022-12-03T10:53:41.824Z,92.70
2022-12-03T10:56:20.455Z,91.34
2022-12-03T10:58:51.048Z,90.62
2022-12-03T11:01:24.638Z,92.54
2022-12-03T11:03:57.000Z,90.69
2022-12-03T11:06:26.901Z,91.82
2022-12-03T11:09:02.590Z,89.25
2022-12-03T11:11:35.707Z,88.94
2022-12-03T11:14:06.455Z,90.17
2022-12-03T11:16:42.411Z,90.53
2022-12-03T11:19:19.854Z,90.77
2022-12-03T11:22:07.840Z,91.01
2022-12-03T11:24:39.969Z,91.14
2022-12-03T11:27:19.432Z,89.58
2022-12-03T11:29:55.031Z,88.88
2022-12-03T11:32:40.802Z,89.40
2022-12-03T11:35:27.424Z,90.93
2022-12-03T11:38:17.320Z,88.55
2022-12-03T11:41:11.584Z,89.15
2022-12-03T11:43:57.560Z,87.98
2022-12-03T11:46:39.899Z,88.63
2022-12-03T11:49:37.754Z,88.57
2022-12-03T11:52:25.122Z,89.32
2022-12-03T11:55:03.765Z,91.00
2022-12-03T11:57:37.887Z,89.41
2022-12-03T12:00:10.185Z,88.99
2022-12-03T12:02:45.046Z,89.95
2022-12-03T12:05:23.671Z,88.82
2022-12-03T12:07:56.088Z,90.24
2022-12-03T12:10:51.530Z,88.33
2022-12-03T12:13:33.150Z,89.71
2022-12-03T12:16:06.601Z,85.69
2022-12-03T12:18:49.928Z,86.58
2022-12-03T12:21:48.692Z,86.47
2022-12-03T12:24:49.091Z,83.67
2022-12-03T12:27:32.899Z,81.37
2022-12-03T12:30:19.581Z,80.80
2022-12-03T12:33:03.666Z,80.29
2022-12-03T12:35:34.056Z,79.27
2022-12-03T12:38:12.459Z,79.64
2022-12-03T12:40:46.237Z,81.81
2022-12-03T12:43:25.852Z,81.28
2022-12-03T12:45:58.333Z,79.39
2022-12-03T12:48:35.516Z,80.62
2022-12-03T12:51:13.824Z,74.35
2022-12-03T12:53:44.082Z,70.68
2022-12-03T12:56:25.962Z,72.98
2022-12-03T12:58:58.244Z,66.66
2022-12-03T13:01:31.556Z,64.59
2022-12-03T13:04:01.537Z,66.78
2022-12-03T13:06:33.696Z,69.56
2022-12-03T13:09:03.601Z,75.63
2022-12-03T13:11:58.559Z,73.67
2022-12-03T13:14:33.857Z,73.60
2022-12-03T13:17:20.165Z,73.81
2022-12-03T13:19:58.230Z,77.79
2022-12-03T13:22:33.662Z,74.90
2022-12-03T13:25:50.518Z,72.92
2022-12-03T13:28:15.655Z,75.04
2022-12-03T13:30:45.414Z,76.15
2022-12-03T13:33:24.973Z,73.88
2022-12-03T13:35:58.264Z,73.84
2022-12-03T13:38:29.930Z,74.66
2022-12-03T13:41:02.824Z,71.71
2022-12-03T13:43:34.340Z,74.90
2022-12-03T13:46:05.201Z,72.11
2022-12-03T13:48:38.269Z,71.41
2022-12-03T13:51:35.012Z,73.87
2022-12-03T13:54:04.951Z,70.47
2022-12-03T13:56:35.161Z,71.60
2022-12-03T13:59:05.989Z,72.51
2022-12-03T14:01:37.345Z,72.43
2022-12-03T14:04:07.525Z,70.89
2022-12-03T14:06:37.376Z,71.94
2022-12-03T14:09:07.409Z,74.79
2022-12-03T14:11:55.626Z,70.57
2022-12-03T14:14:25.655Z,69.94
2022-12-03T14:16:59.833Z,68.95
2022-12-03T14:19:31.636Z,66.87
2022-12-03T14:22:01.961Z,67.43
2022-12-03T14:24:32.074Z,64.07
2022-12-03T14:27:01.769Z,66.83
2022-12-03T14:29:34.655Z,66.40
2022-12-03T14:32:05.238Z,67.51
2022-12-03T14:34:35.185Z,67.22
2022-12-03T14:37:05.306Z,67.99
2022-12-03T14:39:35.150Z,68.04
2022-12-03T14:42:17.699Z,69.99
2022-12-03T14:44:49.719Z,69.61
2022-12-03T14:47:23.672Z,68.13
2022-12-03T14:49:54.260Z,68.85
2022-12-03T14:52:24.894Z,67.61
2022-12-03T14:54:54.687Z,73.62
2022-12-03T14:57:24.853Z,70.70
2022-12-03T14:59:54.798Z,69.49
2022-12-03T15:02:24.711Z,70.43
2022-12-03T15:04:54.672Z,68.69
2022-12-03T15:07:24.485Z,67.80
2022-12-03T15:09:54.645Z,66.40
2022-12-03T15:12:24.707Z,64.86
2022-12-03T15:14:55.107Z,64.35
2022-12-03T15:17:31.400Z,69.34
2022-12-03T15:20:02.226Z,72.28
2022-12-03T15:22:32.167Z,63.80
2022-12-03T15:25:03.599Z,68.15
2022-12-03T15:27:34.129Z,63.26
2022-12-03T15:30:04.304Z,65.57
2022-12-03T15:32:34.084Z,65.62
2022-12-03T15:35:03.851Z,65.93
2022-12-03T15:37:33.575Z,64.97
2022-12-03T15:40:03.383Z,65.39
2022-12-03T15:42:33.170Z,65.16
2022-12-03T15:45:02.923Z,66.86
2022-12-03T15:47:36.026Z,67.44
2022-12-03T15:50:07.011Z,65.95
2022-12-03T15:52:37.514Z,65.11
2022-12-03T15:55:07.743Z,64.98
2022-12-03T15:57:37.662Z,66.67
2022-12-03T16:00:09.437Z,68.76
2022-12-03T16:02:45.046Z,67.12
2022-12-03T16:05:18.142Z,66.71
2022-12-03T16:07:47.863Z,65.73
2022-12-03T16:10:18.732Z,65.63
2022-12-03T16:12:48.943Z,65.99
2022-12-03T16:15:25.140Z,66.00
2022-12-03T16:17:57.686Z,62.05
2022-12-03T16:20:27.564Z,62.22
2022-12-03T16:22:57.834Z,58.36
2022-12-03T16:25:30.327Z,59.89
2022-12-03T16:28:00.531Z,62.62
2022-12-03T16:30:30.565Z,57.80
2022-12-03T16:33:00.375Z,57.46
2022-12-03T16:35:30.390Z,58.05
2022-12-03T16:38:13.053Z,56.53
2022-12-03T16:40:44.625Z,56.58
2022-12-03T16:43:14.540Z,62.03
2022-12-03T16:45:44.255Z,61.54
2022-12-03T16:48:14.260Z,63.48
2022-12-03T16:50:44.229Z,59.64
2022-12-03T16:53:14.345Z,59.38
2022-12-03T16:55:44.181Z,57.49
2022-12-03T16:58:14.059Z,59.30
2022-12-03T17:00:43.785Z,59.63
2022-12-03T17:03:13.651Z,60.24
2022-12-03T17:05:43.565Z,62.63
2022-12-03T17:08:13.642Z,63.02
2022-12-03T17:10:43.913Z,64.99
2022-12-03T18:01:28.632Z,68.09
2022-12-03T18:03:59.286Z,64.51
2022-12-03T18:06:29.632Z,64.88
2022-12-03T18:09:00.070Z,66.42
2022-12-03T18:11:30.061Z,63.56
2022-12-03T18:13:59.916Z,66.55
2022-12-03T18:16:30.975Z,65.67
2022-12-03T18:19:06.208Z,64.02
2022-12-03T18:21:38.435Z,64.09
2022-12-03T18:24:08.782Z,64.42
2022-12-03T18:26:38.762Z,62.82
2022-12-03T18:29:09.394Z,63.70
2022-12-03T18:31:39.327Z,65.60
2022-12-03T18:34:09.055Z,67.70
2022-12-03T18:36:38.819Z,69.19
2022-12-03T18:39:10.732Z,70.83
2022-12-03T18:41:41.009Z,70.63
2022-12-03T18:44:12.263Z,70.79
2022-12-03T18:46:53.638Z,71.44
2022-12-03T18:49:24.737Z,72.05
2022-12-03T18:51:59.003Z,72.50
2022-12-03T18:54:29.350Z,72.50
2022-12-03T18:56:59.111Z,74.06
2022-12-03T18:59:30.132Z,73.27
2022-12-03T19:02:00.290Z,73.89
2022-12-03T19:04:30.336Z,73.04
2022-12-03T19:07:00.144Z,72.98
2022-12-03T19:09:30.053Z,72.33
2022-12-03T19:11:59.865Z,74.06
2022-12-03T19:14:29.796Z,74.04
2022-12-03T19:16:59.509Z,73.42
2022-12-03T19:19:29.422Z,73.74
2022-12-03T19:21:59.592Z,74.09
2022-12-03T19:24:30.607Z,73.95
2022-12-03T19:27:01.367Z,73.28
2022-12-03T19:29:31.370Z,74.12
2022-12-03T19:32:01.886Z,73.95
2022-12-03T19:34:32.001Z,75.02
2022-12-03T19:37:01.723Z,74.60
2022-12-03T19:39:31.454Z,74.82
2022-12-03T19:42:01.510Z,75.08
2022-12-03T19:44:31.925Z,75.29
2022-12-03T19:47:03.310Z,76.90
2022-12-03T19:49:33.666Z,77.14
2022-12-03T19:52:04.804Z,78.15
2022-12-03T19:54:34.933Z,77.84
2022-12-03T19:57:05.327Z,77.21
2022-12-03T19:59:35.100Z,77.30
2022-12-03T20:02:05.230Z,77.84
2022-12-03T20:04:35.185Z,79.94
2022-12-03T20:07:05.812Z,81.01
2022-12-03T20:09:35.570Z,81.85
2022-12-03T20:12:05.487Z,85.48
2022-12-03T20:14:35.220Z,88.30
2022-12-03T20:17:04.955Z,89.58
2022-12-03T20:19:34.643Z,92.47
2022-12-03T20:22:04.405Z,94.22
2022-12-03T20:24:34.148Z,94.52
2022-12-03T20:27:03.869Z,95.15
2022-12-03T20:29:33.579Z,96.13
2022-12-03T20:32:04.270Z,96.53
2022-12-03T20:34:37.930Z,96.00
2022-12-03T20:37:08.007Z,96.23
2022-12-03T20:39:37.754Z,97.03
2022-12-03T20:42:07.777Z,97.04
2022-12-03T20:44:39.375Z,97.49
2022-12-03T20:47:09.272Z,97.35
2022-12-03T20:49:40.306Z,97.14
2022-12-03T20:52:10.492Z,97.18
2022-12-03T20:54:41.152Z,97.10
2022-12-03T20:57:11.290Z,96.81
2022-12-03T20:59:41.047Z,97.53
2022-12-03T21:02:12.104Z,97.68
2022-12-03T21:04:42.332Z,97.87
2022-12-03T21:07:12.896Z,97.99
2022-12-03T21:09:43.128Z,97.97
2022-12-03T21:12:12.837Z,97.70
2022-12-03T21:14:42.536Z,97.32
2022-12-03T21:17:12.258Z,97.62
2022-12-03T21:19:42.220Z,97.71
2022-12-03T21:22:12.095Z,96.83
2022-12-03T21:24:43.999Z,96.76
2022-12-03T21:27:19.844Z,97.30
2022-12-03T21:29:51.553Z,97.31
2022-12-03T21:32:22.022Z,97.12
2022-12-03T21:34:52.057Z,97.18
2022-12-03T21:37:21.800Z,97.25
2022-12-03T21:39:51.564Z,96.71
2022-12-03T21:42:36.013Z,97.48
2022-12-03T21:45:07.864Z,97.56
2022-12-03T21:47:37.807Z,97.61
2022-12-03T21:50:09.420Z,97.77
2022-12-03T21:52:39.709Z,98.28
2022-12-03T21:55:09.746Z,98.21
2022-12-03T21:57:39.883Z,98.24
2022-12-03T22:00:10.510Z,98.39
2022-12-03T22:02:41.408Z,98.64
2022-12-03T22:05:12.665Z,98.61
2022-12-03T22:07:43.008Z,98.56
2022-12-03T22:10:13.902Z,98.73
2022-12-03T22:12:43.896Z,98.95
2022-12-03T22:15:18.425Z,99.21
2022-12-03T22:17:49.620Z,99.33
2022-12-03T22:20:19.515Z,99.44
2022-12-03T22:22:49.244Z,99.49
2022-12-03T22:25:19.094Z,99.61
2022-12-03T22:27:48.784Z,99.52
2022-12-03T22:30:18.622Z,98.95
2022-12-03T22:32:49.179Z,98.80
2022-12-03T22:35:19.306Z,99.11
2022-12-03T22:37:48.974Z,99.08
2022-12-03T22:40:18.985Z,98.85
2022-12-03T22:42:51.025Z,98.94
2022-12-03T22:45:23.863Z,98.83
2022-12-03T22:47:53.881Z,98.71
2022-12-03T22:50:23.759Z,98.43
2022-12-03T22:52:53.429Z,97.31
2022-12-03T22:55:23.095Z,97.25
2022-12-03T22:57:52.777Z,97.05
2022-12-03T23:00:31.280Z,96.13
2022-12-03T23:03:01.646Z,96.46
2022-12-03T23:05:37.955Z,95.23
2022-12-03T23:08:09.961Z,95.53
2022-12-03T23:10:42.713Z,94.97
2022-12-03T23:13:13.586Z,94.56
2022-12-03T23:15:48.666Z,94.38
2022-12-03T23:18:20.148Z,95.24
2022-12-03T23:20:52.942Z,96.13
2022-12-03T23:23:27.446Z,95.91
2022-12-03T23:26:06.039Z,96.09
2022-12-03T23:28:38.682Z,96.79
2022-12-03T23:31:26.295Z,97.76
2022-12-03T23:33:56.931Z,96.39
2022-12-03T23:36:28.517Z,98.13
2022-12-03T23:38:58.622Z,98.33
2022-12-03T23:41:28.683Z,98.59
2022-12-03T23:43:59.256Z,98.82
2022-12-03T23:46:29.575Z,98.89
2022-12-03T23:49:00.614Z,99.08
2022-12-03T23:51:30.786Z,99.37
2022-12-03T23:54:00.455Z,99.54
2022-12-03T23:56:32.133Z,99.90
2022-12-03T23:59:02.188Z,99.65
